Météo Nord-Pas-de-Calais   La météo au plus près de chez vous

Station météorologique

Observations météo à Leran (09161)

09161003 391 m Dernier relevé à 05:48
14°C
Humidité 91 % Vent 0 km/h

Journée consultée

Mercredi 2 Septembre 2026

Synthèse de la journée

Périodes de référence en UTC

Température maximale

30.1°C

à 18:00

06h 06h

Température minimale

14°C

à 05:48

18h 18h

Rafale maximale

5 km/h

à 04:18

00h 00h

Précipitations

0 mm

Cumul quotidien

06h 06h

Graphiques de la journée

Heure locale Réduire

Données détaillées

Relevés météo

Pas de 6 minutes Afficher les relevés infra-horaires
Relevés météo détaillés à Leran pour le Mercredi 2 Septembre 2026
Heure Température °C Point de rosée °C Humidité % Vent moyen (raf.), km/h Précipitations mm
05:48 14 °C 12.4 °C 90 % 3 km/h (5 km/h) 0 mm0 mm
05:42 14.1 °C 12.7 °C 91 % 3 km/h (5 km/h) 0 mm0 mm
05:36 14.1 °C 12.5 °C 90 % 2 km/h (4 km/h) 0 mm0 mm
05:30 14.1 °C 12.5 °C 90 % 0 km/h (3 km/h) 0 mm0 mm
05:24 14.3 °C 12.8 °C 91 % 0 km/h (3 km/h) 0 mm0 mm
05:18 14.3 °C 12.8 °C 91 % 0 km/h (4 km/h) 0 mm0 mm
05:12 14.3 °C 12.7 °C 90 % 3 km/h (4 km/h) 0 mm0 mm
05:06 14.3 °C 12.7 °C 90 % 3 km/h (4 km/h) 0 mm0 mm
05:00 14.4 °C 12.9 °C 91 % 3 km/h (4 km/h) 0 mm0 mm
04:54 14.5 °C 13.2 °C 92 % 0 km/h (3 km/h) 0 mm0 mm
04:48 14.5 °C 13 °C 91 % 0 km/h (0 km/h) 0 mm0 mm
04:42 14.6 °C 13.1 °C 91 % 0 km/h (2 km/h) 0 mm0 mm
04:36 14.7 °C 13.2 °C 91 % 0 km/h (4 km/h) 0 mm0 mm
04:30 14.7 °C 13.2 °C 91 % 3 km/h (4 km/h) 0 mm0 mm
04:24 14.6 °C 13 °C 90 % 2 km/h (5 km/h) 0 mm0 mm
04:18 14.7 °C 13.1 °C 90 % 4 km/h (5 km/h) 0 mm0 mm
04:12 14.6 °C 12.8 °C 89 % 2 km/h (5 km/h) 0 mm0 mm
04:06 14.8 °C 13 °C 89 % 0 km/h (3 km/h) 0 mm0 mm
04:00 14.7 °C 12.7 °C 88 % 0 km/h (3 km/h) 0 mm0 mm
03:54 15 °C 13.2 °C 89 % 2 km/h (4 km/h) 0 mm0 mm
03:48 14.9 °C 12.9 °C 88 % 3 km/h (4 km/h) 0 mm0 mm
03:42 15 °C 12.9 °C 87 % 2 km/h (4 km/h) 0 mm0 mm
03:36 15 °C 12.9 °C 87 % 0 km/h (2 km/h) 0 mm0 mm
03:30 15.2 °C 13.2 °C 88 % 0 km/h (2 km/h) 0 mm0 mm
03:24 15.3 °C 13.5 °C 89 % 0 km/h (2 km/h) 0 mm0 mm
03:18 15.4 °C 13.6 °C 89 % 0 km/h (0 km/h) 0 mm0 mm
03:12 15.4 °C 13.4 °C 88 % 0 km/h (2 km/h) 0 mm0 mm
03:06 15.6 °C 13.6 °C 88 % 0 km/h (2 km/h) 0 mm0 mm
03:00 15.5 °C 13.2 °C 86 % 0 km/h (2 km/h) 0 mm0 mm
02:54 15.5 °C 13 °C 85 % 0 km/h (2 km/h) 0 mm0 mm
02:48 15.7 °C 13.5 °C 87 % 0 km/h (0 km/h) 0 mm0 mm
02:42 15.8 °C 13.6 °C 87 % 0 km/h (0 km/h) 0 mm0 mm
02:36 15.8 °C 13.5 °C 86 % 0 km/h (0 km/h) 0 mm0 mm
02:30 16 °C 13.8 °C 87 % 0 km/h (0 km/h) 0 mm0 mm
02:24 16.2 °C 13.9 °C 86 % 0 km/h (0 km/h) 0 mm0 mm
02:18 16.3 °C 13.8 °C 85 % 0 km/h (0 km/h) 0 mm0 mm
02:12 16.2 °C 12.9 °C 81 % 0 km/h (0 km/h) 0 mm0 mm
02:06 16.4 °C 13.3 °C 82 % 0 km/h (3 km/h) 0 mm0 mm
02:00 16.5 °C 13.4 °C 82 % 0 km/h (3 km/h) 0 mm0 mm
01:54 16.6 °C 13.7 °C 83 % 0 km/h (0 km/h) 0 mm0 mm
01:48 16.7 °C 13.6 °C 82 % 0 km/h (2 km/h) 0 mm0 mm
01:42 16.8 °C 13.9 °C 83 % 0 km/h (3 km/h) 0 mm0 mm
01:36 17 °C 14.1 °C 83 % 0 km/h (3 km/h) 0 mm0 mm
01:30 17 °C 14.1 °C 83 % 0 km/h (0 km/h) 0 mm0 mm
01:24 17 °C 13.7 °C 81 % 0 km/h (3 km/h) 0 mm0 mm
01:18 17 °C 13.1 °C 78 % 2 km/h (3 km/h) 0 mm0 mm
01:12 17 °C 12.9 °C 77 % 0 km/h (3 km/h) 0 mm0 mm
01:06 17.3 °C 13.8 °C 80 % 0 km/h (0 km/h) 0 mm0 mm
01:00 17.3 °C 13.6 °C 79 % 0 km/h (3 km/h) 0 mm0 mm
00:54 17.4 °C 14.1 °C 81 % 0 km/h (3 km/h) 0 mm0 mm
00:48 17.4 °C 13.5 °C 78 % 2 km/h (3 km/h) 0 mm0 mm
00:42 17.3 °C 13 °C 76 % 3 km/h (5 km/h) 0 mm0 mm
00:36 17.4 °C 12.9 °C 75 % 0 km/h (5 km/h) 0 mm0 mm
00:30 17.8 °C 13.7 °C 77 % 0 km/h (3 km/h) 0 mm0 mm
00:24 18 °C 14.1 °C 78 % 0 km/h (0 km/h) 0 mm0 mm
00:18 18 °C 13.3 °C 74 % 0 km/h (2 km/h) 0 mm0 mm
00:12 18.2 °C 13.3 °C 73 % 0 km/h (3 km/h) 0 mm0 mm
00:06 18.2 °C 12.9 °C 71 % 2 km/h (4 km/h) 0 mm0 mm
00:00 18.2 °C 12.9 °C 71 % 3 km/h (4 km/h) 0 mm0 mm

Données via Météo-France

Relevés météo à Leran

Cette page rassemble les observations de la station de Leran : température, humidité, vent, précipitations et pression atmosphérique. Les graphiques facilitent le suivi de la journée, tandis que le tableau donne accès aux mesures horaires et infra-horaires disponibles.

Pour replacer ces mesures dans leur contexte, consultez la climatologie de Leran ainsi que ses normales et records. Retrouvez aussi la carte des observations météo en temps réel.